Time;durP1;ratioP1;P1;durP2;ratioP2;P2;SDS_P1;SDS_P2;PMS_P1;PMS_P2;Temp;Humidity;BMP_temperature;BMP_pressure;BME280_temperature;BME280_humidity;BME280_pressure;Samples;Min_cycle;Max_cycle;Signal;HPM_P1;HPM_P2
2022/05/29 11:55:32;;;;;;;2.40;0.50;;;17.30;60.40;;;;;;5071674;28;20394;-65
2022/05/29 11:57:58;;;;;;;1.95;0.70;;;17.30;62.60;;;;;;5071322;28;20036;-79
2022/05/29 12:00:51;;;;;;;2.70;0.65;;;17.20;61.80;;;;;;5071027;28;20431;-76
2022/05/29 12:03:47;;;;;;;0.32;0.32;;;17.00;61.50;;;;;;5071138;28;20036;-75
2022/05/29 12:06:18;;;;;;;3.55;0.50;;;17.10;63.30;;;;;;5071238;28;20032;-74
2022/05/29 12:09:06;;;;;;;1.83;0.75;;;17.00;63.80;;;;;;5071138;28;20566;-74
2022/05/29 12:11:38;;;;;;;1.90;0.32;;;16.90;63.20;;;;;;5070832;28;20024;-74
2022/05/29 12:14:18;;;;;;;2.28;0.50;;;16.70;64.30;;;;;;5070924;28;20020;-74
2022/05/29 12:16:47;;;;;;;0.90;0.40;;;16.50;64.10;;;;;;5069567;28;20090;-74
2022/05/29 12:19:24;;;;;;;0.55;0.30;;;16.60;65.20;;;;;;5070714;28;20105;-74
2022/05/29 12:21:55;;;;;;;4.43;0.70;;;16.60;66.10;;;;;;5070767;28;20025;-74
2022/05/29 12:24:26;;;;;;;1.02;0.70;;;16.40;67.50;;;;;;5069359;28;20125;-74
2022/05/29 12:27:15;;;;;;;3.25;0.77;;;16.40;68.80;;;;;;5069986;28;20029;-74
2022/05/29 12:29:59;;;;;;;1.35;0.63;;;16.50;67.40;;;;;;5066715;28;20040;-74
2022/05/29 12:32:30;;;;;;;2.10;0.60;;;16.50;67.70;;;;;;5070594;28;20074;-74
2022/05/29 12:35:07;;;;;;;1.13;0.68;;;16.50;69.30;;;;;;5068817;28;20085;-74
2022/05/29 12:37:33;;;;;;;2.53;0.57;;;16.50;67.10;;;;;;5069151;28;20032;-75
2022/05/29 12:40:23;;;;;;;2.00;0.60;;;16.50;69.70;;;;;;5070350;28;20029;-74
2022/05/29 12:43:26;;;;;;;2.20;0.70;;;16.30;70.40;;;;;;5069498;28;20027;-74
2022/05/29 12:46:23;;;;;;;1.50;0.95;;;16.20;70.50;;;;;;5068978;28;20048;-74
2022/05/29 12:49:10;;;;;;;2.67;0.70;;;16.20;74.30;;;;;;5069955;28;20025;-75
2022/05/29 12:51:45;;;;;;;2.60;0.60;;;16.30;73.60;;;;;;5069762;28;20033;-75
2022/05/29 12:54:38;;;;;;;1.30;0.60;;;16.30;73.50;;;;;;5069685;28;20113;-75
2022/05/29 12:57:31;;;;;;;2.20;0.50;;;16.30;73.70;;;;;;5068797;28;20067;-75
2022/05/29 13:00:06;;;;;;;2.47;0.47;;;16.20;76.50;;;;;;5068691;28;20115;-76
2022/05/29 13:03:09;;;;;;;1.05;0.70;;;16.20;76.90;;;;;;5068636;28;20350;-76
2022/05/29 13:06:29;;;;;;;1.58;0.60;;;15.90;82.90;;;;;;5062820;28;20032;-75
2022/05/29 13:09:13;;;;;;;1.27;0.57;;;15.70;93.90;;;;;;5034087;28;20517;-75
2022/05/29 13:11:46;;;;;;;0.90;0.60;;;15.50;96.60;;;;;;5056548;28;20070;-75
2022/05/29 13:14:16;;;;;;;4.10;1.00;;;15.40;98.60;;;;;;5056353;28;20112;-75
2022/05/29 13:16:44;;;;;;;1.50;0.70;;;15.20;99.90;;;;;;5056165;28;20028;-75
2022/05/29 13:22:05;;;;;;;1.52;0.95;;;14.90;99.90;;;;;;5056444;28;20028;-77
2022/05/29 13:24:43;;;;;;;2.38;0.60;;;14.90;99.90;;;;;;5054927;28;20036;-76
2022/05/29 13:27:17;;;;;;;2.22;0.90;;;14.80;99.90;;;;;;5055117;28;20465;-75
2022/05/29 13:29:50;;;;;;;1.75;0.88;;;14.70;99.90;;;;;;5055802;28;20310;-75
2022/05/29 13:32:15;;;;;;;4.38;0.90;;;14.70;99.90;;;;;;5054624;28;20060;-75
2022/05/29 13:34:52;;;;;;;1.45;0.80;;;14.80;99.90;;;;;;5055711;28;20056;-75
2022/05/29 13:37:42;;;;;;;0.70;0.70;;;14.90;99.90;;;;;;5055903;28;20059;-75
2022/05/29 13:40:08;;;;;;;1.35;0.80;;;14.90;99.90;;;;;;5056049;28;20057;-75
2022/05/29 13:42:36;;;;;;;1.73;0.93;;;15.00;99.90;;;;;;5055041;28;20040;-75
2022/05/29 13:45:23;;;;;;;1.73;0.77;;;15.00;99.90;;;;;;5054430;28;20413;-75
2022/05/29 13:48:02;;;;;;;3.63;0.90;;;15.00;99.90;;;;;;5054594;28;20025;-74
2022/05/29 13:50:42;;;;;;;0.93;0.70;;;15.00;99.90;;;;;;5055607;28;20107;-74
2022/05/29 13:53:32;;;;;;;1.10;0.52;;;15.00;99.90;;;;;;5054963;28;20029;-73
2022/05/29 13:56:00;;;;;;;1.73;0.98;;;14.90;99.90;;;;;;5055550;28;20025;-74
2022/05/29 14:04:44;;;;;;;1.40;1.17;;;14.70;99.90;;;;;;5055149;28;20071;-74
2022/05/29 14:07:21;;;;;;;4.32;1.00;;;14.70;99.90;;;;;;5055159;28;20436;-74
2022/05/29 14:10:09;;;;;;;0.88;0.70;;;14.70;99.90;;;;;;5054303;28;20056;-73
2022/05/29 14:12:34;;;;;;;1.80;0.68;;;14.60;99.90;;;;;;5055448;28;20044;-73
2022/05/29 14:15:35;;;;;;;2.22;0.98;;;14.50;99.90;;;;;;5053826;28;20029;-73
2022/05/29 14:18:09;;;;;;;3.85;1.30;;;14.40;99.90;;;;;;5054357;28;20052;-72
2022/05/29 14:20:40;;;;;;;2.90;1.40;;;14.50;99.90;;;;;;5054072;28;20472;-74
2022/05/29 14:23:50;;;;;;;2.13;0.90;;;14.40;99.90;;;;;;5053987;28;20025;-73
2022/05/29 14:26:43;;;;;;;0.70;0.70;;;14.50;99.90;;;;;;5042701;28;20540;-73
2022/05/29 14:29:18;;;;;;;2.10;1.08;;;14.40;99.90;;;;;;5054185;28;20326;-74
2022/05/29 14:31:49;;;;;;;1.65;1.08;;;14.40;99.90;;;;;;5054901;28;20036;-73
2022/05/29 14:34:35;;;;;;;0.68;0.68;;;14.40;99.90;;;;;;5054802;28;20033;-63
2022/05/29 14:37:02;;;;;;;0.90;0.70;;;14.30;99.90;;;;;;5054822;28;20029;-62
2022/05/29 14:39:53;;;;;;;2.33;1.13;;;14.20;99.90;;;;;;5054785;28;20108;-62
2022/05/29 14:42:22;;;;;;;1.00;0.90;;;14.20;99.90;;;;;;5054523;28;20052;-62
2022/05/29 14:45:10;;;;;;;3.50;1.10;;;14.20;99.90;;;;;;5054685;28;20112;-73
2022/05/29 14:47:42;;;;;;;2.00;1.13;;;14.10;99.90;;;;;;5055038;28;20062;-73
2022/05/29 14:50:07;;;;;;;4.05;1.35;;;14.20;99.90;;;;;;5054842;28;20021;-72
2022/05/29 14:52:48;;;;;;;5.72;1.15;;;14.40;99.90;;;;;;5054750;28;20167;-72
2022/05/29 14:55:16;;;;;;;1.67;1.00;;;14.50;99.90;;;;;;5054094;28;20041;-73
2022/05/29 14:57:55;;;;;;;2.05;1.38;;;14.50;99.90;;;;;;5054091;28;20025;-74
2022/05/29 15:00:39;;;;;;;2.05;1.80;;;14.40;99.90;;;;;;5054547;28;20040;-73
2022/05/29 15:03:16;;;;;;;4.63;1.38;;;14.50;99.90;;;;;;5054430;28;20090;-74
2022/05/29 15:05:51;;;;;;;2.40;1.40;;;14.40;99.90;;;;;;5054582;28;20520;-74
2022/05/29 15:11:12;;;;;;;2.50;1.10;;;14.30;99.90;;;;;;5054238;28;20067;-74
2022/05/29 15:14:25;;;;;;;2.20;1.40;;;14.30;99.90;;;;;;5054289;28;20098;-73
2022/05/29 15:16:51;;;;;;;0.90;0.90;;;14.30;99.90;;;;;;5053044;28;20079;-74
2022/05/29 15:24:08;;;;;;;1.40;1.30;;;14.30;99.90;;;;;;5054097;28;20116;-74
2022/05/29 15:25:10;;;;;;;;;;;14.10;99.90;;;;;;5054346;28;20040;-74
2022/05/29 15:27:40;;;;;;;2.63;1.48;;;13.80;99.90;;;;;;5048242;28;19909;-73
2022/05/29 15:30:12;;;;;;;4.47;1.08;;;13.70;99.90;;;;;;5033319;28;20037;-74
2022/05/29 15:32:40;;;;;;;1.40;1.27;;;13.70;99.90;;;;;;5033850;28;20071;-74
2022/05/29 15:35:32;;;;;;;2.67;1.40;;;13.80;99.90;;;;;;5032559;28;20033;-75
2022/05/29 15:38:27;;;;;;;2.90;1.50;;;13.80;99.90;;;;;;5033942;28;20072;-76
2022/05/29 15:41:31;;;;;;;1.67;1.40;;;13.90;99.90;;;;;;5038773;28;20051;-75
2022/05/29 15:44:39;;;;;;;1.85;1.00;;;13.90;99.90;;;;;;5053896;28;20511;-76
2022/05/29 15:47:07;;;;;;;2.25;1.40;;;13.90;99.90;;;;;;5024079;28;20400;-76
2022/05/29 15:50:11;;;;;;;1.75;1.02;;;13.80;99.90;;;;;;5052428;28;20032;-76
2022/05/29 15:53:09;;;;;;;1.55;1.10;;;13.80;99.90;;;;;;5043817;28;20034;-76
2022/05/29 15:55:44;;;;;;;1.25;1.23;;;13.80;99.90;;;;;;5053713;28;20068;-76
2022/05/29 15:58:32;;;;;;;3.50;1.30;;;13.80;99.90;;;;;;5053410;28;20441;-76
2022/05/29 16:01:32;;;;;;;4.33;2.03;;;13.80;99.90;;;;;;5053268;28;20431;-75
2022/05/29 16:03:58;;;;;;;2.72;2.40;;;13.70;99.90;;;;;;5049709;28;20033;-75
2022/05/29 16:06:40;;;;;;;4.50;1.80;;;13.60;99.90;;;;;;5053507;28;20135;-75
2022/05/29 16:09:07;;;;;;;2.08;1.30;;;13.50;99.90;;;;;;5052225;28;20379;-74
2022/05/29 16:11:36;;;;;;;3.22;1.80;;;13.40;99.90;;;;;;5053459;28;20053;-74
2022/05/29 16:14:04;;;;;;;2.13;1.40;;;13.20;99.90;;;;;;5053386;28;20036;-75
2022/05/29 16:16:32;;;;;;;1.40;1.30;;;13.10;99.90;;;;;;5053056;28;20068;-75
2022/05/29 16:19:10;;;;;;;2.95;1.50;;;13.10;99.90;;;;;;5053298;28;20031;-75
2022/05/29 16:22:30;;;;;;;3.83;1.10;;;13.00;99.90;;;;;;5052114;28;20071;-74
2022/05/29 16:25:12;;;;;;;2.80;1.50;;;12.90;99.90;;;;;;4994898;28;20451;-75
2022/05/29 16:27:43;;;;;;;1.77;1.23;;;12.90;99.90;;;;;;5053383;28;20098;-76
2022/05/29 16:30:18;;;;;;;1.60;1.00;;;12.80;99.90;;;;;;5052021;28;20035;-76
2022/05/29 16:32:51;;;;;;;7.07;2.10;;;12.60;99.90;;;;;;5053445;28;20021;-76
2022/05/29 16:35:38;;;;;;;1.85;1.50;;;12.50;99.90;;;;;;5052288;28;20078;-73
2022/05/29 16:49:44;;;;;;;2.63;1.38;;;12.30;99.90;;;;;;5056598;28;20483;-75
2022/05/29 16:52:23;;;;;;;2.15;1.20;;;12.30;99.90;;;;;;5056529;28;20025;-75
2022/05/29 16:55:21;;;;;;;;;;;12.30;99.90;;;;;;5055742;28;20127;-75
2022/05/29 16:57:52;;;;;;;2.78;1.58;;;12.30;99.90;;;;;;5044498;28;19912;-75
2022/05/29 17:00:23;;;;;;;1.92;1.10;;;12.30;99.90;;;;;;5055454;28;20028;-74
2022/05/29 17:02:55;;;;;;;5.57;1.95;;;12.20;99.90;;;;;;5056916;28;20461;-74
2022/05/29 17:05:29;;;;;;;2.53;1.20;;;12.20;99.90;;;;;;5056995;28;20072;-75
2022/05/29 17:08:13;;;;;;;4.47;1.83;;;12.20;99.90;;;;;;5056617;28;20432;-75
2022/05/29 17:10:50;;;;;;;2.47;1.48;;;12.10;99.90;;;;;;5055259;28;20464;-75
2022/05/29 17:13:16;;;;;;;4.10;1.20;;;12.00;99.90;;;;;;5056539;28;20028;-74
2022/05/29 17:15:42;;;;;;;2.90;1.50;;;12.10;99.90;;;;;;5056377;28;20480;-75
2022/05/29 17:18:08;;;;;;;6.40;2.13;;;12.10;99.90;;;;;;5056317;28;20040;-74
2022/05/29 17:20:52;;;;;;;1.90;1.27;;;12.10;99.90;;;;;;5056644;28;20028;-74
2022/05/29 17:23:36;;;;;;;5.00;1.52;;;12.10;99.90;;;;;;5055084;28;20021;-74
2022/05/29 17:26:28;;;;;;;3.75;1.67;;;12.00;99.90;;;;;;5055095;28;20468;-75
2022/05/29 17:28:55;;;;;;;4.18;1.63;;;12.00;99.90;;;;;;5031774;28;20033;-75
2022/05/29 17:31:47;;;;;;;1.67;1.13;;;11.90;99.90;;;;;;5056217;28;20029;-73
2022/05/29 17:34:19;;;;;;;2.42;1.40;;;11.90;99.90;;;;;;5055801;28;20056;-76
2022/05/29 17:37:09;;;;;;;4.55;1.52;;;11.90;99.90;;;;;;5056132;28;20108;-76
2022/05/29 17:39:57;;;;;;;2.67;1.27;;;11.90;99.90;;;;;;5054830;28;20353;-74
2022/05/29 17:42:23;;;;;;;2.65;1.88;;;11.80;99.90;;;;;;5056065;28;20052;-79
2022/05/29 17:44:49;;;;;;;1.55;1.42;;;11.70;99.90;;;;;;5054513;28;20051;-79
2022/05/29 17:47:43;;;;;;;2.15;1.83;;;11.60;99.90;;;;;;5056175;28;20483;-75
2022/05/29 17:50:18;;;;;;;3.25;1.58;;;11.60;99.90;;;;;;5055503;28;20051;-78
2022/05/29 17:52:59;;;;;;;2.60;1.20;;;11.50;99.90;;;;;;5055661;28;20079;-76
2022/05/29 17:55:25;;;;;;;3.35;1.33;;;11.50;99.90;;;;;;5054357;28;20037;-76
2022/05/29 17:57:55;;;;;;;2.00;1.35;;;11.40;99.90;;;;;;5055456;28;20036;-76
2022/05/29 18:00:23;;;;;;;1.60;1.50;;;11.40;99.90;;;;;;5055382;28;20478;-77
2022/05/29 18:02:53;;;;;;;3.85;2.42;;;11.30;99.90;;;;;;5055660;28;20032;-63
2022/05/29 18:05:19;;;;;;;2.40;1.85;;;11.30;99.90;;;;;;5055577;28;20056;-77
2022/05/29 18:07:45;;;;;;;2.38;1.90;;;11.20;99.90;;;;;;5054526;28;20029;-76
2022/05/29 18:10:12;;;;;;;2.63;1.95;;;11.20;99.90;;;;;;5054715;28;20027;-77
2022/05/29 18:12:38;;;;;;;3.67;1.98;;;11.20;99.90;;;;;;5055373;28;20079;-75
2022/05/29 18:15:06;;;;;;;3.53;1.50;;;11.20;99.90;;;;;;5055223;28;20061;-75
2022/05/29 18:17:32;;;;;;;3.87;2.70;;;11.10;99.90;;;;;;5054000;28;20108;-73
2022/05/29 18:19:58;;;;;;;2.53;2.30;;;11.10;99.90;;;;;;5055187;28;20060;-73
2022/05/29 18:22:24;;;;;;;2.45;2.20;;;11.10;99.90;;;;;;5053604;28;20025;-72
2022/05/29 18:24:49;;;;;;;15.45;2.63;;;11.10;99.90;;;;;;5055116;28;20028;-74
2022/05/29 18:27:17;;;;;;;3.75;2.33;;;11.10;99.90;;;;;;5055052;28;20033;-64
2022/05/29 18:29:43;;;;;;;3.72;2.03;;;11.10;99.90;;;;;;5054980;28;20028;-64
2022/05/29 18:32:10;;;;;;;3.42;2.55;;;11.20;99.90;;;;;;5054086;28;20028;-64
2022/05/29 18:34:36;;;;;;;3.63;3.00;;;11.10;99.90;;;;;;5054502;28;20043;-63
2022/05/29 18:37:02;;;;;;;3.33;2.20;;;11.10;99.90;;;;;;5054567;28;20393;-64
2022/05/29 18:39:28;;;;;;;3.08;2.05;;;11.10;99.90;;;;;;5055182;28;20528;-63
2022/05/29 18:41:53;;;;;;;4.38;2.30;;;11.00;99.90;;;;;;5054684;28;20060;-63
2022/05/29 18:44:19;;;;;;;3.97;2.30;;;10.90;99.90;;;;;;5054593;28;20056;-63
2022/05/29 18:46:45;;;;;;;4.38;2.55;;;10.90;99.90;;;;;;5054689;28;20025;-73
2022/05/29 18:49:12;;;;;;;2.97;2.72;;;10.80;99.90;;;;;;5053446;28;20119;-74
2022/05/29 18:51:39;;;;;;;5.50;3.10;;;10.80;99.90;;;;;;5054774;28;20035;-74
2022/05/29 18:54:05;;;;;;;7.47;2.90;;;10.80;99.90;;;;;;5054829;28;20045;-73
2022/05/29 18:56:32;;;;;;;4.13;2.88;;;10.80;99.90;;;;;;5053204;28;20078;-74
2022/05/29 18:58:59;;;;;;;3.72;2.72;;;10.90;99.90;;;;;;5053784;28;20350;-73
2022/05/29 19:01:26;;;;;;;2.70;2.05;;;10.90;99.90;;;;;;5054170;28;20116;-73
2022/05/29 19:03:52;;;;;;;2.60;2.08;;;10.90;99.90;;;;;;5053945;28;20043;-72
2022/05/29 19:06:20;;;;;;;2.00;1.83;;;10.80;99.90;;;;;;5053093;28;20520;-72
2022/05/29 19:08:47;;;;;;;5.75;2.20;;;10.80;99.90;;;;;;5054222;28;20457;-72
2022/05/29 19:11:13;;;;;;;2.65;1.80;;;10.70;99.90;;;;;;5053058;28;20055;-73
2022/05/29 19:13:44;;;;;;;4.32;2.28;;;10.60;99.90;;;;;;5053905;28;20397;-72
2022/05/29 19:16:12;;;;;;;3.72;1.92;;;10.60;99.90;;;;;;5054359;28;20036;-74
2022/05/29 19:18:38;;;;;;;3.33;2.20;;;10.50;99.90;;;;;;5053834;28;20159;-72
2022/05/29 19:21:04;;;;;;;2.80;1.95;;;10.50;99.90;;;;;;5053911;28;20437;-72
2022/05/29 19:23:30;;;;;;;4.68;2.33;;;10.40;99.90;;;;;;5054057;28;20112;-73
2022/05/29 19:26:05;;;;;;;1.95;1.80;;;10.40;99.90;;;;;;5052982;28;20119;-73
2022/05/29 19:28:31;;;;;;;1.85;1.75;;;10.40;99.90;;;;;;5052765;28;20025;-73
2022/05/29 19:30:58;;;;;;;2.95;2.47;;;10.40;99.90;;;;;;5047951;22;20077;-71
2022/05/29 19:33:27;;;;;;;2.20;2.00;;;10.40;99.90;;;;;;5033923;28;20104;-71
2022/05/29 19:35:53;;;;;;;1.67;1.58;;;10.30;99.90;;;;;;5033969;28;20393;-72
2022/05/29 19:38:20;;;;;;;2.55;1.85;;;10.30;99.90;;;;;;5032421;28;20021;-74
2022/05/29 19:40:46;;;;;;;6.05;3.08;;;10.20;99.90;;;;;;5033912;28;20045;-73
2022/05/29 19:43:12;;;;;;;6.40;1.95;;;10.20;99.90;;;;;;5034256;28;20029;-74
2022/05/29 19:45:38;;;;;;;3.22;2.63;;;10.20;99.90;;;;;;5033882;28;20083;-74
2022/05/29 19:48:04;;;;;;;2.33;1.85;;;10.20;99.90;;;;;;5049281;28;20021;-74
2022/05/29 19:50:31;;;;;;;3.17;1.90;;;10.20;99.90;;;;;;5033609;28;20350;-73
2022/05/29 19:52:58;;;;;;;2.25;1.65;;;10.20;99.90;;;;;;5033929;28;20026;-73
2022/05/29 19:55:27;;;;;;;2.38;1.40;;;10.10;99.90;;;;;;5049096;28;20083;-74
2022/05/29 19:57:53;;;;;;;4.55;1.75;;;10.10;99.90;;;;;;5032536;28;20029;-72
2022/05/29 20:00:21;;;;;;;5.28;1.60;;;10.00;99.90;;;;;;5033787;28;20041;-73
2022/05/29 20:02:47;;;;;;;1.58;1.48;;;10.00;99.90;;;;;;5049108;28;20029;-74
2022/05/29 20:05:14;;;;;;;1.98;1.88;;;10.00;99.90;;;;;;5032470;28;20025;-73
2022/05/29 20:07:40;;;;;;;2.08;1.90;;;9.90;99.90;;;;;;5032522;28;20409;-74
2022/05/29 20:10:07;;;;;;;2.25;2.15;;;9.90;99.90;;;;;;5032579;28;20462;-74
2022/05/29 20:12:33;;;;;;;3.78;2.30;;;10.00;99.90;;;;;;5033691;28;20420;-74
2022/05/29 20:14:58;;;;;;;3.42;2.45;;;10.00;99.90;;;;;;5033834;28;20079;-73
2022/05/29 20:17:24;;;;;;;6.50;2.35;;;10.00;99.90;;;;;;5037813;28;20354;-73
2022/05/29 20:19:50;;;;;;;3.28;2.92;;;10.00;99.90;;;;;;5037512;28;20048;-73
2022/05/29 20:22:17;;;;;;;5.30;2.75;;;10.10;99.90;;;;;;5036809;28;20031;-74
2022/05/29 20:24:43;;;;;;;4.72;2.72;;;10.10;99.90;;;;;;5036276;28;20056;-73
2022/05/29 20:27:11;;;;;;;3.35;2.20;;;10.10;99.90;;;;;;5037482;28;20074;-74
2022/05/29 20:29:38;;;;;;;2.35;2.15;;;10.10;99.90;;;;;;5036509;28;20045;-74
2022/05/29 20:32:04;;;;;;;4.25;2.20;;;10.10;99.90;;;;;;5037533;28;20560;-74
2022/05/29 20:34:30;;;;;;;2.50;2.17;;;10.00;99.90;;;;;;5036121;28;20362;-73
2022/05/29 20:36:56;;;;;;;2.03;1.83;;;10.00;99.90;;;;;;5036608;28;20127;-74
2022/05/29 20:39:22;;;;;;;3.92;2.03;;;10.00;99.90;;;;;;5036308;28;20080;-74
2022/05/29 20:41:49;;;;;;;4.53;1.73;;;10.00;99.90;;;;;;5036159;28;20061;-73
2022/05/29 20:44:19;;;;;;;3.60;1.60;;;10.00;99.90;;;;;;5037546;28;20029;-74
2022/05/29 20:49:32;;;;;;;3.17;1.50;;;9.90;99.90;;;;;;5037289;28;20083;-74
2022/05/29 20:51:58;;;;;;;2.38;2.20;;;9.90;99.90;;;;;;5037566;28;20021;-73
2022/05/29 20:54:24;;;;;;;5.25;1.88;;;9.90;99.90;;;;;;5037226;28;20116;-74
2022/05/29 20:56:52;;;;;;;2.08;1.73;;;9.90;99.90;;;;;;5036130;28;20116;-75
2022/05/29 20:59:20;;;;;;;3.17;2.28;;;10.00;99.90;;;;;;5036029;28;20040;-75
2022/05/29 21:01:50;;;;;;;2.08;1.98;;;10.00;99.90;;;;;;5037273;28;20022;-74
2022/05/29 21:04:16;;;;;;;2.63;2.35;;;10.00;99.90;;;;;;5035819;28;20026;-74
2022/05/29 21:06:42;;;;;;;4.45;2.25;;;10.10;99.90;;;;;;5036943;28;20045;-74
2022/05/29 21:09:08;;;;;;;2.63;2.25;;;10.10;99.90;;;;;;5036980;28;20465;-74
2022/05/29 21:11:34;;;;;;;2.63;2.30;;;10.20;99.90;;;;;;5037163;28;20083;-74
2022/05/29 21:14:05;;;;;;;2.15;1.92;;;10.20;99.90;;;;;;5036806;28;20032;-74
2022/05/29 21:16:31;;;;;;;3.92;1.95;;;10.20;99.90;;;;;;5036878;28;20113;-74
2022/05/29 21:18:57;;;;;;;2.40;2.20;;;10.10;99.90;;;;;;5036869;28;20028;-74
2022/05/29 21:21:25;;;;;;;3.22;2.67;;;10.20;99.90;;;;;;5052095;28;20030;-74
2022/05/29 21:23:54;;;;;;;2.58;2.33;;;10.20;99.90;;;;;;5035225;28;20040;-74
2022/05/29 21:26:19;;;;;;;3.15;2.75;;;10.20;99.90;;;;;;5036355;28;20025;-74
2022/05/29 21:28:45;;;;;;;2.67;1.92;;;10.30;99.90;;;;;;5037106;28;20033;-73
2022/05/29 21:31:11;;;;;;;3.88;2.30;;;10.30;99.90;;;;;;5037378;28;20401;-73
2022/05/29 21:33:39;;;;;;;4.55;1.95;;;10.20;99.90;;;;;;5038082;28;20032;-74
2022/05/29 21:36:11;;;;;;;2.20;2.00;;;10.20;99.90;;;;;;5038121;28;20462;-73
2022/05/29 21:38:36;;;;;;;2.22;1.85;;;10.20;99.90;;;;;;5037915;28;20104;-74
2022/05/29 21:41:03;;;;;;;1.70;1.60;;;10.20;99.90;;;;;;5036614;28;20100;-69
2022/05/29 21:43:30;;;;;;;3.65;1.92;;;10.20;99.90;;;;;;5037369;28;20025;-72
2022/05/29 21:46:03;;;;;;;2.25;1.83;;;10.30;99.90;;;;;;5038225;28;20069;-70
2022/05/29 21:48:29;;;;;;;3.60;2.13;;;10.30;99.90;;;;;;5038286;28;20112;-77
2022/05/29 21:50:55;;;;;;;1.80;1.70;;;10.40;99.90;;;;;;5037338;28;20099;-76
2022/05/29 21:53:23;;;;;;;2.53;1.83;;;10.40;99.90;;;;;;5035624;28;20021;-76
2022/05/29 21:55:48;;;;;;;1.98;1.70;;;10.40;99.90;;;;;;5034893;28;20069;-76
2022/05/29 21:58:14;;;;;;;1.98;1.88;;;10.40;99.90;;;;;;5035078;28;20056;-78
2022/05/29 22:00:43;;;;;;;2.03;1.80;;;10.40;99.90;;;;;;5034674;28;20113;-76
2022/05/29 22:03:08;;;;;;;1.70;1.60;;;10.40;99.90;;;;;;5035247;28;20026;-76
2022/05/29 22:05:36;;;;;;;4.70;1.65;;;10.40;99.90;;;;;;5035529;28;20392;-76
2022/05/29 22:08:05;;;;;;;3.20;1.58;;;10.40;99.90;;;;;;5035847;28;20032;-76
2022/05/29 22:10:31;;;;;;;1.90;1.70;;;10.40;99.90;;;;;;5034495;28;20025;-76
2022/05/29 22:12:57;;;;;;;2.20;1.98;;;10.40;99.90;;;;;;5035684;28;20033;-76
2022/05/29 22:15:23;;;;;;;2.17;1.98;;;10.40;99.90;;;;;;5033975;28;20072;-76
2022/05/29 22:17:49;;;;;;;2.60;2.22;;;10.40;99.90;;;;;;5034349;28;20080;-76
2022/05/29 22:20:17;;;;;;;3.55;2.00;;;10.40;99.90;;;;;;5035865;28;20030;-76
2022/05/29 22:22:46;;;;;;;2.00;1.90;;;10.30;99.90;;;;;;5035650;28;20129;-76
2022/05/29 22:25:14;;;;;;;6.68;2.15;;;10.40;99.90;;;;;;5035470;28;20029;-76
2022/05/29 22:27:39;;;;;;;3.08;1.95;;;10.40;99.90;;;;;;5035385;28;20083;-76
2022/05/29 22:30:06;;;;;;;2.88;2.58;;;10.30;99.90;;;;;;5033943;28;20432;-76
2022/05/29 22:32:47;;;;;;;2.92;2.42;;;10.30;99.90;;;;;;5033882;28;20025;-76
2022/05/29 22:35:15;;;;;;;3.72;2.63;;;10.30;99.90;;;;;;5035207;28;20378;-76
2022/05/29 22:37:42;;;;;;;2.75;2.55;;;10.40;99.90;;;;;;5033658;28;20536;-76
2022/05/29 22:40:11;;;;;;;3.65;2.53;;;10.40;99.90;;;;;;5033581;28;20117;-76
2022/05/29 22:42:37;;;;;;;3.33;3.03;;;10.40;99.90;;;;;;5034972;28;20025;-78
2022/05/29 22:45:04;;;;;;;3.40;2.50;;;10.50;99.90;;;;;;5033352;28;20034;-79
2022/05/29 22:47:45;;;;;;;5.55;2.25;;;10.50;99.90;;;;;;5034303;28;20109;-78
2022/05/29 22:50:13;;;;;;;2.45;2.08;;;10.50;99.90;;;;;;5034831;28;20033;-78
2022/05/29 22:52:48;;;;;;;4.85;3.08;;;10.50;99.90;;;;;;5034837;28;20025;-78
2022/05/29 22:55:20;;;;;;;4.13;2.70;;;10.50;99.90;;;;;;5033414;28;20037;-77
2022/05/29 22:57:47;;;;;;;2.63;2.42;;;10.50;99.90;;;;;;5034895;28;20033;-78
2022/05/29 23:00:15;;;;;;;3.17;2.30;;;10.50;99.90;;;;;;5033457;28;20037;-79
2022/05/29 23:02:42;;;;;;;5.05;3.13;;;10.50;99.90;;;;;;5033339;28;20025;-78
2022/05/29 23:05:09;;;;;;;3.67;3.10;;;10.50;99.90;;;;;;5033515;28;20056;-78
2022/05/29 23:07:35;;;;;;;2.90;2.45;;;10.50;99.90;;;;;;5034899;28;20033;-78
2022/05/29 23:10:01;;;;;;;2.92;2.70;;;10.50;99.90;;;;;;5033194;28;20022;-77
2022/05/29 23:12:28;;;;;;;7.05;3.33;;;10.50;99.90;;;;;;5032904;28;20500;-78
2022/05/29 23:14:55;;;;;;;3.22;3.00;;;10.40;99.90;;;;;;5033369;28;20087;-78
2022/05/29 23:17:21;;;;;;;3.50;2.83;;;10.40;99.90;;;;;;5034428;28;20030;-78
2022/05/29 23:19:46;;;;;;;4.32;2.75;;;10.40;99.90;;;;;;5033037;28;20535;-77
2022/05/29 23:22:19;;;;;;;3.65;3.22;;;10.40;99.90;;;;;;5034274;28;20048;-77
2022/05/29 23:24:52;;;;;;;4.40;3.13;;;10.40;99.90;;;;;;5034283;28;20032;-77
2022/05/29 23:27:17;;;;;;;3.92;2.47;;;10.40;99.90;;;;;;5033040;28;20021;-78
2022/05/29 23:32:43;;;;;;;2.88;2.67;;;10.40;99.90;;;;;;5034471;28;20440;-77
2022/05/29 23:35:09;;;;;;;2.92;2.55;;;10.40;99.90;;;;;;5032823;28;20036;-78
2022/05/29 23:37:35;;;;;;;4.18;2.90;;;10.40;99.90;;;;;;5034054;28;20056;-77
2022/05/29 23:40:02;;;;;;;3.53;2.78;;;10.40;99.90;;;;;;5034185;28;20457;-78
2022/05/29 23:42:28;;;;;;;3.70;2.60;;;10.40;99.90;;;;;;5034036;28;20032;-77
2022/05/29 23:45:20;;;;;;;3.53;2.50;;;10.40;99.90;;;;;;5032754;28;20120;-78
2022/05/29 23:47:57;;;;;;;2.55;2.17;;;10.40;99.90;;;;;;5034170;28;20029;-78
2022/05/29 23:50:26;;;;;;;3.70;2.20;;;10.40;99.90;;;;;;5033831;28;20100;-78
2022/05/29 23:52:53;;;;;;;2.35;2.17;;;10.40;99.90;;;;;;5034236;28;20025;-78
2022/05/29 23:55:19;;;;;;;1.45;1.45;;;10.40;99.90;;;;;;5033860;28;20076;-78
2022/05/29 23:57:49;;;;;;;2.72;1.50;;;10.40;99.90;;;;;;5033833;28;20025;-78
